Time;durP1;ratioP1;P1;durP2;ratioP2;P2;SDS_P1;SDS_P2;PMS_P1;PMS_P2;Temp;Humidity;BMP_temperature;BMP_pressure;BME280_temperature;BME280_humidity;BME280_pressure;Samples;Min_cycle;Max_cycle;Signal;HPM_P1;HPM_P2
2021/04/06 00:02:14;;;;;;;;;;;0.60;99.90;;;;;;5082526;28;20342;-80
2021/04/06 00:04:41;;;;;;;;;;;0.60;99.90;;;;;;5061859;28;20853;-80
2021/04/06 00:07:09;;;;;;;;;;;0.60;99.90;;;;;;5093859;28;20027;-80
2021/04/06 00:09:34;;;;;;;;;;;0.70;99.90;;;;;;5095541;28;19930;-78
2021/04/06 00:12:03;;;;;;;;;;;0.70;99.90;;;;;;5096722;28;19917;-75
2021/04/06 00:14:28;;;;;;;;;;;0.70;99.90;;;;;;5076656;28;19920;-77
2021/04/06 00:16:54;;;;;;;;;;;0.60;99.90;;;;;;5088761;28;19920;-74
2021/04/06 00:19:20;;;;;;;;;;;0.70;99.90;;;;;;5091361;28;19927;-74
2021/04/06 00:21:47;;;;;;;;;;;0.60;99.90;;;;;;5105277;27;19923;-78
2021/04/06 00:24:13;;;;;;;;;;;0.60;99.90;;;;;;5082323;28;19920;-77
2021/04/06 00:26:45;;;;;;;;;;;0.60;99.90;;;;;;5095065;28;20398;-75
2021/04/06 00:29:11;;;;;;;;;;;0.60;99.90;;;;;;5074621;28;19920;-75
2021/04/06 00:31:39;;;;;;;;;;;0.60;99.90;;;;;;5092442;27;19913;-77
2021/04/06 00:34:04;;;;;;;;;;;0.60;99.90;;;;;;5083864;28;21693;-73
2021/04/06 00:36:30;;;;;;;;;;;0.50;99.90;;;;;;5082744;28;19927;-74
2021/04/06 00:39:00;;;;;;;;;;;0.50;99.90;;;;;;5097986;28;20362;-73
2021/04/06 00:41:26;;;;;;;;;;;0.50;99.90;;;;;;5087598;28;19928;-74
2021/04/06 00:43:51;;;;;;;;;;;0.50;99.90;;;;;;5075841;28;19912;-74
2021/04/06 00:46:20;;;;;;;;;;;0.50;99.90;;;;;;5080818;28;19976;-73
2021/04/06 00:48:48;;;;;;;;;;;0.50;99.90;;;;;;5081158;28;19916;-73
2021/04/06 00:51:18;;;;;;;;;;;0.50;99.90;;;;;;5095843;28;20458;-77
2021/04/06 00:54:00;;;;;;;;;;;0.40;99.90;;;;;;5093908;28;19920;-76
2021/04/06 00:56:25;;;;;;;;;;;0.40;99.90;;;;;;5110587;27;19968;-76
2021/04/06 00:58:51;;;;;;;;;;;0.50;99.90;;;;;;5090770;28;20431;-75
2021/04/06 01:01:36;;;;;;;;;;;0.50;99.90;;;;;;5091603;28;19962;-75
2021/04/06 01:04:12;;;;;;;;;;;0.40;99.90;;;;;;5089390;28;19942;-76
2021/04/06 01:06:57;;;;;;;;;;;0.40;99.90;;;;;;5076687;28;19951;-76
2021/04/06 01:09:38;;;;;;;;;;;0.30;99.90;;;;;;5106640;27;19916;-76
2021/04/06 01:12:04;;;;;;;;;;;0.20;99.90;;;;;;5075498;28;20426;-75
2021/04/06 01:14:30;;;;;;;;;;;0.20;99.90;;;;;;5093194;27;19920;-75
2021/04/06 01:16:56;;;;;;;;;;;0.20;99.90;;;;;;5075975;28;21744;-77
2021/04/06 01:19:22;;;;;;;;;;;0.30;99.90;;;;;;5078856;28;19959;-73
2021/04/06 01:21:47;;;;;;;;;;;0.30;99.90;;;;;;5075066;28;20077;-76
2021/04/06 01:24:13;;;;;;;;;;;0.40;99.90;;;;;;5075390;28;19920;-74
2021/04/06 01:26:39;;;;;;;;;;;0.40;99.90;;;;;;5075672;28;19955;-74
2021/04/06 01:29:05;;;;;;;;;;;0.50;99.90;;;;;;5076580;28;19980;-75
2021/04/06 01:31:31;;;;;;;;;;;0.50;99.90;;;;;;5107822;27;19921;-77
2021/04/06 01:33:56;;;;;;;;;;;0.60;99.90;;;;;;5085933;28;19962;-78
2021/04/06 01:36:25;;;;;;;;;;;0.60;99.90;;;;;;5091682;27;19931;-75
2021/04/06 01:38:50;;;;;;;;;;;0.60;99.90;;;;;;5075226;28;19919;-76
2021/04/06 01:41:16;;;;;;;;;;;0.60;99.90;;;;;;5076487;28;19921;-76
2021/04/06 01:43:47;;;;;;;;;;;0.60;99.90;;;;;;5090998;28;19946;-76
2021/04/06 01:46:20;;;;;;;;;;;0.60;99.90;;;;;;5086820;28;20264;-76
2021/04/06 01:48:46;;;;;;;;;;;0.60;99.90;;;;;;5092546;28;19954;-76
2021/04/06 01:51:15;;;;;;;;;;;0.60;99.90;;;;;;5091036;28;20620;-75
2021/04/06 01:53:43;;;;;;;;;;;0.70;99.90;;;;;;5093527;28;19912;-78
2021/04/06 01:56:15;;;;;;;;;;;0.70;99.90;;;;;;5086202;28;20012;-76
2021/04/06 01:58:47;;;;;;;;;;;0.60;99.90;;;;;;5087683;28;19912;-77
2021/04/06 02:01:19;;;;;;;;;;;0.60;99.90;;;;;;5089993;28;19924;-77
2021/04/06 02:06:32;;;;;;;;;;;0.50;99.90;;;;;;5090542;28;19915;-76
2021/04/06 02:09:00;;;;;;;;;;;0.50;99.90;;;;;;5085733;28;19923;-77
2021/04/06 02:11:29;;;;;;;;;;;0.60;99.90;;;;;;5095121;28;19916;-78
2021/04/06 02:14:07;;;;;;;;;;;0.60;99.90;;;;;;5077363;28;19924;-75
2021/04/06 02:16:42;;;;;;;;;;;0.60;99.90;;;;;;5090385;28;20028;-75
2021/04/06 02:19:07;;;;;;;;;;;0.60;99.90;;;;;;5084273;28;19929;-76
2021/04/06 02:21:33;;;;;;;;;;;0.60;99.90;;;;;;5075862;28;19927;-76
2021/04/06 02:23:59;;;;;;;;;;;0.50;99.90;;;;;;5090406;28;19912;-78
2021/04/06 02:26:24;;;;;;;;;;;0.40;99.90;;;;;;5080972;28;20012;-76
2021/04/06 02:28:53;;;;;;;;;;;0.30;99.90;;;;;;5074920;28;20709;-77
2021/04/06 02:31:18;;;;;;;;;;;0.40;99.90;;;;;;5075527;28;21774;-75
2021/04/06 02:33:44;;;;;;;;;;;0.40;99.90;;;;;;5073987;28;20003;-75
2021/04/06 02:36:10;;;;;;;;;;;0.50;99.90;;;;;;5086410;28;20068;-79
2021/04/06 02:38:39;;;;;;;;;;;0.50;99.90;;;;;;5073916;28;20495;-76
2021/04/06 02:41:14;;;;;;;;;;;0.50;99.90;;;;;;5076333;28;19928;-76
2021/04/06 02:44:06;;;;;;;;;;;0.70;99.90;;;;;;5075414;28;19917;-77
2021/04/06 02:46:32;;;;;;;;;;;0.70;99.90;;;;;;5091043;28;19920;-76
2021/04/06 02:48:58;;;;;;;;;;;0.80;99.90;;;;;;5091983;28;19994;-78
2021/04/06 02:51:24;;;;;;;;;;;0.80;99.90;;;;;;5079589;28;20389;-77
2021/04/06 02:53:50;;;;;;;;;;;0.80;99.90;;;;;;5097139;28;20006;-78
2021/04/06 02:56:31;;;;;;;;;;;0.90;99.90;;;;;;5096855;28;20008;-77
2021/04/06 02:59:13;;;;;;;;;;;0.90;99.90;;;;;;5088710;28;19921;-76
2021/04/06 03:01:39;;;;;;;;;;;0.90;99.90;;;;;;5078987;28;19927;-75
2021/04/06 03:04:21;;;;;;;;;;;0.90;99.90;;;;;;5111115;27;19920;-74
2021/04/06 03:06:47;;;;;;;;;;;0.90;99.90;;;;;;5077763;28;19931;-76
2021/04/06 03:09:13;;;;;;;;;;;0.90;99.90;;;;;;5084254;28;19916;-76
2021/04/06 03:11:43;;;;;;;;;;;0.90;99.90;;;;;;5078640;28;19967;-75
2021/04/06 03:14:09;;;;;;;;;;;0.90;99.90;;;;;;5077913;28;20357;-76
2021/04/06 03:16:35;;;;;;;;;;;0.90;99.90;;;;;;5078295;28;19924;-76
2021/04/06 03:19:01;;;;;;;;;;;0.80;99.90;;;;;;5078005;28;20527;-75
2021/04/06 03:21:27;;;;;;;;;;;0.90;99.90;;;;;;5072149;28;19925;-74
2021/04/06 03:23:52;;;;;;;;;;;0.90;99.90;;;;;;5078228;28;19931;-74
2021/04/06 03:26:23;;;;;;;;;;;0.90;99.90;;;;;;5089241;28;19926;-76
2021/04/06 03:28:49;;;;;;;;;;;1.00;99.90;;;;;;5094405;28;19969;-75
2021/04/06 03:31:18;;;;;;;;;;;1.00;99.90;;;;;;5094173;28;20010;-75
2021/04/06 03:33:46;;;;;;;;;;;1.00;99.90;;;;;;5095086;28;19922;-76
2021/04/06 03:36:21;;;;;;;;;;;1.00;99.90;;;;;;5093758;28;19931;-75
2021/04/06 03:38:47;;;;;;;;;;;1.00;99.90;;;;;;5109286;27;20074;-75
2021/04/06 03:41:13;;;;;;;;;;;0.90;99.90;;;;;;5079997;28;20044;-76
2021/04/06 03:43:39;;;;;;;;;;;0.90;99.90;;;;;;5066130;28;19928;-75
2021/04/06 03:46:07;;;;;;;;;;;1.00;99.90;;;;;;5078066;28;19923;-75
2021/04/06 03:48:33;;;;;;;;;;;1.00;99.90;;;;;;5080671;28;19932;-75
2021/04/06 03:50:59;;;;;;;;;;;1.10;99.90;;;;;;5078424;28;19917;-75
2021/04/06 03:53:34;;;;;;;;;;;1.10;99.90;;;;;;5076063;28;19921;-74
2021/04/06 03:56:11;;;;;;;;;;;1.10;99.90;;;;;;5079318;28;19934;-74
2021/04/06 04:01:08;;;;;;;;;;;1.00;99.90;;;;;;5080209;28;19927;-76
2021/04/06 04:03:34;;;;;;;;;;;0.90;99.90;;;;;;5077303;28;19978;-75
2021/04/06 04:06:00;;;;;;;;;;;0.80;99.90;;;;;;5080602;28;19924;-75
2021/04/06 04:08:25;;;;;;;;;;;0.80;99.90;;;;;;5096705;28;19912;-75
2021/04/06 04:10:51;;;;;;;;;;;0.80;99.90;;;;;;5091256;28;19912;-76
2021/04/06 04:13:16;;;;;;;;;;;0.80;99.90;;;;;;5095140;27;20299;-77
2021/04/06 04:15:42;;;;;;;;;;;0.80;99.90;;;;;;5095145;28;19963;-77
2021/04/06 04:18:10;;;;;;;;;;;0.80;99.90;;;;;;5083621;28;19924;-77
2021/04/06 04:20:38;;;;;;;;;;;0.70;99.90;;;;;;5080769;28;21673;-75
2021/04/06 04:23:04;;;;;;;;;;;0.60;99.90;;;;;;5078775;28;19924;-75
2021/04/06 04:25:29;;;;;;;;;;;0.40;99.90;;;;;;5096101;28;19912;-75
2021/04/06 04:27:57;;;;;;;;;;;0.40;99.90;;;;;;5087696;28;20353;-75
2021/04/06 04:30:35;;;;;;;;;;;0.40;99.90;;;;;;5077171;28;20261;-75
2021/04/06 04:33:02;;;;;;;;;;;0.40;99.90;;;;;;5076384;28;19935;-76
2021/04/06 04:35:27;;;;;;;;;;;0.40;99.90;;;;;;5076890;28;19926;-77
2021/04/06 04:37:53;;;;;;;;;;;0.40;99.90;;;;;;5076464;28;19924;-76
2021/04/06 04:40:19;;;;;;;;;;;0.50;99.90;;;;;;5092067;27;20022;-75
2021/04/06 04:42:44;;;;;;;;;;;0.50;99.90;;;;;;5076942;28;20354;-74
2021/04/06 04:45:12;;;;;;;;;;;0.50;99.90;;;;;;5076932;28;19931;-77
2021/04/06 04:47:38;;;;;;;;;;;0.60;99.90;;;;;;5089337;28;20032;-75
2021/04/06 04:50:04;;;;;;;;;;;0.60;99.90;;;;;;5090551;28;19950;-75
2021/04/06 04:52:29;;;;;;;;;;;0.60;99.90;;;;;;5078097;28;19912;-75
2021/04/06 04:54:55;;;;;;;;;;;0.70;99.90;;;;;;5093068;28;20318;-75
2021/04/06 04:57:20;;;;;;;;;;;0.70;99.90;;;;;;5088803;28;19965;-75
2021/04/06 04:59:46;;;;;;;;;;;0.80;99.90;;;;;;5093366;28;19931;-76
2021/04/06 05:02:13;;;;;;;;;;;0.80;99.90;;;;;;5093455;28;19917;-75
2021/04/06 05:04:39;;;;;;;;;;;0.90;99.90;;;;;;5091854;28;19923;-76
2021/04/06 05:07:07;;;;;;;;;;;0.90;99.90;;;;;;5081853;28;19912;-76
2021/04/06 05:09:33;;;;;;;;;;;1.00;99.90;;;;;;5079217;28;20011;-76
2021/04/06 05:11:58;;;;;;;;;;;1.00;99.90;;;;;;5085632;28;20429;-75
2021/04/06 05:14:26;;;;;;;;;;;1.00;99.90;;;;;;5075000;28;20507;-76
2021/04/06 05:16:52;;;;;;;;;;;1.00;99.90;;;;;;5079362;28;19966;-76
2021/04/06 05:19:19;;;;;;;;;;;1.10;99.90;;;;;;5075662;28;19928;-76
2021/04/06 05:21:45;;;;;;;;;;;1.00;99.90;;;;;;5087306;28;19941;-75
2021/04/06 05:24:11;;;;;;;;;;;1.10;99.90;;;;;;5075822;28;19921;-76
2021/04/06 05:26:38;;;;;;;;;;;1.10;99.90;;;;;;5086183;28;20018;-75
2021/04/06 05:29:04;;;;;;;;;;;1.10;99.90;;;;;;5092106;28;20725;-76
2021/04/06 05:31:32;;;;;;;;;;;1.10;99.90;;;;;;5088819;28;20069;-74
2021/04/06 05:33:57;;;;;;;;;;;1.10;99.90;;;;;;5093232;28;19923;-76
2021/04/06 05:36:25;;;;;;;;;;;1.10;99.90;;;;;;5091035;28;20466;-76
2021/04/06 05:38:51;;;;;;;;;;;1.10;99.90;;;;;;5088137;28;19962;-76
2021/04/06 05:41:17;;;;;;;;;;;1.10;99.90;;;;;;5091960;28;19955;-75
2021/04/06 05:43:43;;;;;;;;;;;1.10;99.90;;;;;;5078385;28;20252;-75
2021/04/06 05:46:08;;;;;;;;;;;1.20;99.90;;;;;;5094458;28;19913;-75
2021/04/06 05:48:34;;;;;;;;;;;1.20;99.90;;;;;;5086327;28;19968;-76
2021/04/06 05:50:59;;;;;;;;;;;1.20;99.90;;;;;;5090976;28;20332;-75
2021/04/06 05:53:25;;;;;;;;;;;1.20;99.90;;;;;;5095747;28;21380;-76
2021/04/06 05:55:50;;;;;;;;;;;1.30;99.90;;;;;;5094945;28;19912;-78
2021/04/06 05:58:16;;;;;;;;;;;1.20;99.90;;;;;;5090294;28;20341;-74
2021/04/06 06:00:44;;;;;;;;;;;1.20;99.90;;;;;;5076818;28;20266;-78
2021/04/06 06:03:09;;;;;;;;;;;1.30;99.90;;;;;;5089641;28;20371;-76
2021/04/06 06:05:35;;;;;;;;;;;1.30;99.90;;;;;;5081541;28;19920;-77
2021/04/06 06:08:07;;;;;;;;;;;1.30;99.90;;;;;;5076149;28;19941;-76
2021/04/06 06:10:32;;;;;;;;;;;1.30;99.90;;;;;;5075723;28;19919;-77
2021/04/06 06:13:13;;;;;;;;;;;1.40;99.90;;;;;;5074607;28;19927;-75
2021/04/06 06:15:39;;;;;;;;;;;1.40;99.90;;;;;;5075386;28;19921;-77
2021/04/06 06:18:05;;;;;;;;;;;1.50;99.90;;;;;;5088955;28;19998;-75
2021/04/06 06:20:31;;;;;;;;;;;1.50;99.90;;;;;;5095151;28;19916;-73
2021/04/06 06:22:58;;;;;;;;;;;1.50;99.90;;;;;;5094961;27;19926;-74
2021/04/06 06:25:25;;;;;;;;;;;1.50;99.90;;;;;;5091408;28;20288;-71
2021/04/06 06:27:52;;;;;;;;;;;1.60;99.90;;;;;;5095742;28;19952;-76
2021/04/06 06:30:17;;;;;;;;;;;1.60;99.90;;;;;;5071062;28;19932;-75
2021/04/06 06:32:45;;;;;;;;;;;1.60;99.90;;;;;;5097825;27;19916;-75
2021/04/06 06:35:11;;;;;;;;;;;1.60;99.90;;;;;;5092608;28;19941;-75
2021/04/06 06:37:39;;;;;;;;;;;1.60;99.90;;;;;;5093816;28;19920;-75
2021/04/06 06:40:07;;;;;;;;;;;1.60;99.90;;;;;;5093465;28;19951;-75
2021/04/06 06:42:37;;;;;;;;;;;1.70;99.90;;;;;;5101436;28;19916;-75
2021/04/06 06:45:03;;;;;;;;;;;1.70;99.90;;;;;;5077639;28;20057;-75
2021/04/06 06:47:31;;;;;;;;;;;1.70;99.90;;;;;;5093032;28;19911;-75
2021/04/06 06:50:06;;;;;;;;;;;1.80;99.90;;;;;;5098213;28;19923;-75
2021/04/06 06:52:34;;;;;;;;;;;1.80;99.90;;;;;;5080980;28;20262;-74
2021/04/06 06:55:02;;;;;;;;;;;1.90;99.90;;;;;;5090578;28;20258;-75
2021/04/06 06:57:29;;;;;;;;;;;1.90;99.90;;;;;;5089995;28;19946;-75
2021/04/06 06:59:55;;;;;;;;;;;1.80;99.90;;;;;;5100463;28;19991;-75
2021/04/06 07:02:24;;;;;;;;;;;1.80;99.90;;;;;;5096453;28;20260;-77
2021/04/06 07:04:51;;;;;;;;;;;1.90;99.90;;;;;;5102048;28;19935;-75
2021/04/06 07:07:19;;;;;;;;;;;2.00;99.90;;;;;;5102803;28;19938;-75
2021/04/06 07:09:45;;;;;;;;;;;2.00;99.90;;;;;;5097732;28;19912;-75
2021/04/06 07:12:14;;;;;;;;;;;2.00;99.90;;;;;;5096243;28;19926;-74
2021/04/06 07:14:45;;;;;;;;;;;2.00;99.90;;;;;;5097011;28;19920;-75
2021/04/06 07:17:13;;;;;;;;;;;2.00;99.90;;;;;;5098462;28;19916;-74
2021/04/06 07:19:43;;;;;;;;;;;2.10;99.90;;;;;;5084376;28;19923;-76
2021/04/06 07:22:13;;;;;;;;;;;2.10;99.90;;;;;;5125771;27;19918;-76
2021/04/06 07:24:39;;;;;;;;;;;2.10;99.90;;;;;;5091498;28;19930;-75
2021/04/06 07:27:05;;;;;;;;;;;2.20;99.90;;;;;;5096638;28;19916;-74
2021/04/06 07:29:31;;;;;;;;;;;2.20;99.90;;;;;;5094556;28;19922;-74
2021/04/06 07:31:57;;;;;;;;;;;2.30;99.90;;;;;;5094714;27;19920;-73
2021/04/06 07:34:25;;;;;;;;;;;2.20;99.90;;;;;;5090412;28;20416;-72
2021/04/06 07:36:51;;;;;;;;;;;2.30;99.90;;;;;;5106145;27;20398;-74
2021/04/06 07:39:19;;;;;;;;;;;2.30;99.90;;;;;;5090713;28;19929;-73
2021/04/06 07:41:45;;;;;;;;;;;2.20;99.90;;;;;;5091864;28;19924;-74
2021/04/06 07:44:11;;;;;;;;;;;2.30;99.90;;;;;;5089156;28;19911;-74
2021/04/06 07:46:36;;;;;;;;;;;2.20;99.90;;;;;;5097523;28;20359;-73
2021/04/06 07:49:06;;;;;;;;;;;2.20;99.90;;;;;;5091071;28;19916;-73
2021/04/06 07:51:34;;;;;;;;;;;2.30;99.90;;;;;;5088871;28;20046;-73
2021/04/06 07:54:07;;;;;;;;;;;2.40;99.90;;;;;;5089570;28;19956;-72
2021/04/06 07:56:49;;;;;;;;;;;2.40;99.90;;;;;;5107649;27;19924;-74
2021/04/06 07:59:23;;;;;;;;;;;2.50;99.90;;;;;;5089630;28;20295;-74
2021/04/06 08:01:54;;;;;;;;;;;2.50;99.90;;;;;;5088138;28;19927;-75
2021/04/06 08:04:28;;;;;;;;;;;2.60;99.90;;;;;;5090867;28;19920;-74
2021/04/06 08:06:55;;;;;;;;;;;2.60;99.90;;;;;;5124713;27;20011;-73
2021/04/06 08:09:37;;;;;;;;;;;2.50;99.90;;;;;;5093028;28;20031;-75
2021/04/06 08:12:35;;;;;;;;;;;2.50;99.90;;;;;;5090719;28;19944;-74
2021/04/06 08:15:00;;;;;;;;;;;2.40;99.90;;;;;;5078293;28;20374;-75
2021/04/06 08:17:28;;;;;;;;;;;2.40;99.90;;;;;;5105020;27;20605;-74
2021/04/06 08:20:12;;;;;;;;;;;2.40;98.90;;;;;;5093717;28;19912;-75
2021/04/06 08:22:48;;;;;;;;;;;2.40;97.10;;;;;;5081002;28;19920;-74
2021/04/06 08:25:20;;;;;;;;;;;2.40;94.20;;;;;;5096601;28;19932;-73
2021/04/06 08:27:53;;;;;;;;;;;2.50;95.80;;;;;;5091074;28;20494;-72
2021/04/06 08:30:18;;;;;;;;;;;2.60;96.30;;;;;;5091155;27;19911;-71
2021/04/06 08:32:56;;;;;;;;;;;2.60;94.70;;;;;;5089618;28;19943;-74
2021/04/06 08:35:42;;;;;;;;;;;2.80;95.00;;;;;;5089984;28;19924;-73
2021/04/06 08:38:20;;;;;;;;;;;2.70;92.60;;;;;;5086757;28;19938;-74
2021/04/06 08:40:50;;;;;;;;;;;2.80;93.00;;;;;;5091338;28;19912;-71
2021/04/06 08:43:20;;;;;;;;;;;2.90;92.80;;;;;;5091738;28;19912;-74
2021/04/06 08:45:52;;;;;;;;;;;3.10;93.00;;;;;;5107334;27;19911;-73
2021/04/06 08:48:55;;;;;;;;;;;3.10;90.60;;;;;;5122086;27;19916;-70
2021/04/06 08:51:21;;;;;;;;;;;3.30;93.40;;;;;;5074559;28;20369;-70
2021/04/06 08:53:47;;;;;;;;;;;3.50;89.30;;;;;;5094761;28;19916;-71
2021/04/06 08:56:13;;;;;;;;;;;3.40;90.50;;;;;;5096654;28;19945;-74
2021/04/06 08:58:39;;;;;;;;;;;3.50;90.20;;;;;;5074829;28;19923;-71
2021/04/06 09:01:05;;;;;;;;;;;3.40;91.50;;;;;;5090547;28;19920;-72
2021/04/06 09:03:30;;;;;;;;;;;3.30;90.70;;;;;;5091257;28;19943;-71
2021/04/06 09:06:08;;;;;;;;;;;3.30;91.50;;;;;;5090662;28;19916;-71
2021/04/06 09:08:52;;;;;;;;;;;3.40;90.20;;;;;;5094017;28;19911;-71
2021/04/06 09:11:22;;;;;;;;;;;3.60;92.00;;;;;;5104313;27;19939;-72
2021/04/06 09:13:53;;;;;;;;;;;3.70;83.70;;;;;;5121797;27;20915;-72
2021/04/06 09:16:25;;;;;;;;;;;3.90;87.30;;;;;;5084385;28;20007;-68
2021/04/06 09:19:05;;;;;;;;;;;4.10;91.80;;;;;;5089962;28;19928;-72
2021/04/06 09:21:31;;;;;;;;;;;4.20;85.20;;;;;;5087708;28;19927;-70
2021/04/06 09:23:59;;;;;;;;;;;4.20;86.20;;;;;;5089847;28;19920;-72
2021/04/06 09:26:25;;;;;;;;;;;4.30;88.20;;;;;;5090806;28;19916;-72
2021/04/06 09:29:07;;;;;;;;;;;4.30;84.90;;;;;;5087122;28;19945;-71
2021/04/06 09:31:33;;;;;;;;;;;4.10;82.90;;;;;;5108537;27;19976;-72
2021/04/06 09:34:09;;;;;;;;;;;3.90;83.90;;;;;;5095275;28;19943;-71
2021/04/06 09:36:35;;;;;;;;;;;3.80;84.60;;;;;;5089872;28;20038;-72
2021/04/06 09:39:04;;;;;;;;;;;3.80;87.50;;;;;;5087929;28;20011;-72
2021/04/06 09:41:31;;;;;;;;;;;4.00;86.10;;;;;;5090074;28;19916;-70
2021/04/06 09:43:57;;;;;;;;;;;4.30;85.40;;;;;;5076404;28;19923;-71
2021/04/06 09:46:34;;;;;;;;;;;4.40;85.70;;;;;;5090628;28;20301;-72
2021/04/06 09:48:59;;;;;;;;;;;4.40;88.10;;;;;;5085562;28;19912;-69
2021/04/06 09:51:25;;;;;;;;;;;4.40;84.70;;;;;;5085229;28;19912;-70
2021/04/06 09:53:50;;;;;;;;;;;4.30;82.10;;;;;;5089470;28;19920;-71
2021/04/06 09:56:16;;;;;;;;;;;4.20;82.10;;;;;;5091600;28;19969;-70
2021/04/06 09:58:41;;;;;;;;;;;4.60;85.70;;;;;;5108511;27;19911;-71
2021/04/06 10:01:20;;;;;;;;;;;4.40;80.10;;;;;;5090204;28;19961;-69
2021/04/06 10:03:46;;;;;;;;;;;4.50;80.20;;;;;;5089034;28;19927;-71
2021/04/06 10:06:13;;;;;;;;;;;4.60;85.00;;;;;;5089397;28;19916;-71
2021/04/06 10:08:40;;;;;;;;;;;4.70;79.50;;;;;;5090048;28;19947;-71
2021/04/06 10:11:08;;;;;;;;;;;4.70;80.80;;;;;;5089742;28;20006;-72
2021/04/06 10:13:35;;;;;;;;;;;4.80;76.10;;;;;;5088919;28;19955;-70
2021/04/06 10:16:08;;;;;;;;;;;4.90;75.20;;;;;;5088086;28;19920;-71
2021/04/06 10:18:39;;;;;;;;;;;4.90;76.50;;;;;;5085789;28;19996;-71
2021/04/06 10:21:15;;;;;;;;;;;4.90;76.80;;;;;;5075500;28;19995;-71
2021/04/06 10:23:43;;;;;;;;;;;5.00;77.20;;;;;;5088942;28;20061;-71
2021/04/06 10:26:21;;;;;;;;;;;5.20;76.30;;;;;;5091497;28;19919;-70
2021/04/06 10:28:47;;;;;;;;;;;5.10;74.80;;;;;;5089347;28;19912;-71
2021/04/06 10:31:13;;;;;;;;;;;5.10;75.60;;;;;;5077747;28;19938;-70
2021/04/06 10:33:39;;;;;;;;;;;5.10;71.40;;;;;;5089696;28;19920;-72
2021/04/06 10:36:08;;;;;;;;;;;5.00;73.50;;;;;;5089825;28;20265;-68
2021/04/06 10:38:35;;;;;;;;;;;5.10;73.20;;;;;;5090828;28;19923;-71
2021/04/06 10:41:05;;;;;;;;;;;5.20;73.70;;;;;;5123281;27;19913;-71
2021/04/06 10:43:30;;;;;;;;;;;5.40;75.40;;;;;;5089385;28;19911;-70
2021/04/06 10:46:09;;;;;;;;;;;5.10;86.60;;;;;;5094895;28;19911;-70
2021/04/06 10:48:36;;;;;;;;;;;4.10;94.40;;;;;;5090119;28;19920;-71
2021/04/06 10:51:21;;;;;;;;;;;3.90;97.90;;;;;;5091048;28;19912;-70
2021/04/06 10:53:49;;;;;;;;;;;3.60;97.10;;;;;;5086159;28;20468;-70
2021/04/06 10:56:16;;;;;;;;;;;3.50;95.20;;;;;;5091795;28;19923;-70
2021/04/06 10:58:44;;;;;;;;;;;3.60;99.90;;;;;;5084627;28;19930;-71
2021/04/06 11:01:11;;;;;;;;;;;3.90;99.90;;;;;;5089253;28;19917;-71
2021/04/06 11:03:40;;;;;;;;;;;4.10;94.60;;;;;;5106644;28;19911;-71
2021/04/06 11:06:10;;;;;;;;;;;4.50;93.90;;;;;;5096540;28;19970;-69
2021/04/06 11:08:38;;;;;;;;;;;4.70;91.50;;;;;;5093681;28;20363;-71
2021/04/06 11:11:13;;;;;;;;;;;4.70;93.20;;;;;;5096271;27;20257;-70
2021/04/06 11:13:39;;;;;;;;;;;4.50;91.80;;;;;;5094019;28;19955;-70
2021/04/06 11:16:04;;;;;;;;;;;4.50;92.10;;;;;;5093899;28;20494;-71
2021/04/06 11:18:30;;;;;;;;;;;4.80;93.00;;;;;;5092267;28;20245;-70
2021/04/06 11:20:56;;;;;;;;;;;5.20;91.00;;;;;;5091800;28;20413;-71
2021/04/06 11:23:21;;;;;;;;;;;5.40;90.40;;;;;;5092304;28;19960;-71
2021/04/06 11:25:47;;;;;;;;;;;5.80;84.20;;;;;;5093090;28;19963;-71
2021/04/06 11:28:12;;;;;;;;;;;5.90;80.10;;;;;;5094057;28;20355;-70
2021/04/06 11:30:38;;;;;;;;;;;6.00;76.50;;;;;;5097339;28;20414;-71
2021/04/06 11:33:03;;;;;;;;;;;6.30;76.00;;;;;;5096327;28;19924;-71
2021/04/06 11:35:31;;;;;;;;;;;6.60;76.50;;;;;;5091029;28;19920;-71
2021/04/06 11:38:00;;;;;;;;;;;6.60;73.30;;;;;;5090911;28;19924;-70
2021/04/06 11:40:26;;;;;;;;;;;6.40;69.40;;;;;;5092604;28;19923;-71
2021/04/06 11:42:52;;;;;;;;;;;6.40;69.20;;;;;;5095996;28;20268;-71
2021/04/06 11:45:21;;;;;;;;;;;6.70;73.70;;;;;;5077762;28;19919;-71
2021/04/06 11:47:48;;;;;;;;;;;7.20;71.70;;;;;;5088943;28;19919;-71
2021/04/06 11:50:15;;;;;;;;;;;7.40;67.90;;;;;;5093846;28;19923;-71
2021/04/06 11:52:43;;;;;;;;;;;7.40;64.70;;;;;;5092940;28;19931;-71
2021/04/06 11:55:11;;;;;;;;;;;6.70;63.50;;;;;;5095167;28;19920;-71
2021/04/06 11:57:37;;;;;;;;;;;6.30;65.60;;;;;;5087671;28;19920;-71
2021/04/06 12:00:03;;;;;;;;;;;6.20;67.80;;;;;;5092400;28;19919;-71
2021/04/06 12:02:29;;;;;;;;;;;6.50;70.40;;;;;;5089263;28;20392;-70
2021/04/06 12:04:54;;;;;;;;;;;7.00;67.10;;;;;;5092004;28;19927;-71
2021/04/06 12:07:20;;;;;;;;;;;7.00;65.60;;;;;;5092474;28;19916;-71
2021/04/06 12:09:46;;;;;;;;;;;7.10;61.20;;;;;;5092885;28;19939;-72
2021/04/06 12:12:13;;;;;;;;;;;7.10;60.50;;;;;;5093836;28;19912;-71
2021/04/06 12:14:39;;;;;;;;;;;7.30;60.40;;;;;;5092844;28;20028;-71
2021/04/06 12:17:05;;;;;;;;;;;7.50;60.50;;;;;;5089947;28;19999;-70
2021/04/06 12:19:34;;;;;;;;;;;7.80;58.80;;;;;;5087831;28;20464;-71
2021/04/06 12:22:00;;;;;;;;;;;8.20;61.70;;;;;;5092510;28;19912;-71
2021/04/06 12:24:25;;;;;;;;;;;8.00;55.80;;;;;;5093893;28;20317;-71
2021/04/06 12:26:52;;;;;;;;;;;8.20;59.50;;;;;;5093696;28;20363;-71
2021/04/06 12:29:17;;;;;;;;;;;8.50;55.40;;;;;;5091396;28;19916;-72
2021/04/06 12:31:43;;;;;;;;;;;8.40;55.30;;;;;;5094339;28;19920;-71
2021/04/06 12:34:08;;;;;;;;;;;8.20;53.30;;;;;;5090563;28;19947;-70
2021/04/06 12:36:34;;;;;;;;;;;7.80;52.70;;;;;;5091157;28;19990;-70
2021/04/06 12:39:02;;;;;;;;;;;7.80;54.40;;;;;;5090409;28;19920;-71
2021/04/06 12:41:28;;;;;;;;;;;8.10;54.90;;;;;;5097833;28;19924;-72
2021/04/06 12:43:53;;;;;;;;;;;8.40;51.30;;;;;;5096150;28;19913;-72
2021/04/06 12:46:19;;;;;;;;;;;8.80;51.80;;;;;;5092897;28;19926;-72
2021/04/06 12:48:47;;;;;;;;;;;8.90;51.90;;;;;;5090673;28;19994;-70
2021/04/06 12:51:14;;;;;;;;;;;9.20;52.20;;;;;;5093151;28;19970;-71
2021/04/06 12:53:40;;;;;;;;;;;8.80;52.80;;;;;;5089972;28;19919;-72
2021/04/06 12:56:06;;;;;;;;;;;9.00;51.60;;;;;;5090072;28;20002;-71
2021/04/06 12:58:31;;;;;;;;;;;8.50;51.00;;;;;;5088674;27;19924;-71
2021/04/06 13:00:57;;;;;;;;;;;8.10;53.10;;;;;;5088917;28;20812;-70
2021/04/06 13:03:22;;;;;;;;;;;8.10;53.90;;;;;;5089972;28;20316;-71
2021/04/06 13:05:48;;;;;;;;;;;8.30;56.20;;;;;;5093671;28;19938;-72
2021/04/06 13:08:16;;;;;;;;;;;8.60;54.10;;;;;;5090975;28;20544;-72
2021/04/06 13:10:44;;;;;;;;;;;8.70;54.70;;;;;;5076414;28;20022;-71
2021/04/06 13:13:10;;;;;;;;;;;8.50;53.70;;;;;;5088643;28;19929;-69
2021/04/06 13:15:39;;;;;;;;;;;8.80;52.50;;;;;;5087820;28;19912;-72
2021/04/06 13:18:04;;;;;;;;;;;9.50;52.90;;;;;;5086213;28;19920;-71
2021/04/06 13:20:30;;;;;;;;;;;9.70;53.10;;;;;;5089074;28;19977;-72
2021/04/06 13:22:58;;;;;;;;;;;9.50;50.70;;;;;;5091176;28;19931;-71
2021/04/06 13:25:23;;;;;;;;;;;9.20;50.00;;;;;;5087752;28;19974;-72
2021/04/06 13:27:49;;;;;;;;;;;8.60;50.30;;;;;;5092016;28;19956;-70
2021/04/06 13:30:16;;;;;;;;;;;7.90;50.40;;;;;;5086871;28;19916;-72
2021/04/06 13:32:44;;;;;;;;;;;7.30;51.40;;;;;;5105750;27;20007;-71
2021/04/06 13:35:15;;;;;;;;;;;7.20;53.60;;;;;;5087649;28;19990;-73
2021/04/06 13:37:45;;;;;;;;;;;6.80;53.30;;;;;;5085768;28;19934;-71
2021/04/06 13:40:14;;;;;;;;;;;6.30;54.70;;;;;;5092371;28;19947;-72
2021/04/06 13:42:40;;;;;;;;;;;6.00;56.40;;;;;;5091975;28;19963;-71
2021/04/06 13:45:09;;;;;;;;;;;5.30;67.50;;;;;;5089492;28;19940;-72
2021/04/06 13:47:35;;;;;;;;;;;5.10;70.30;;;;;;5091344;28;19916;-71
2021/04/06 13:50:00;;;;;;;;;;;5.00;73.00;;;;;;5076349;28;20022;-71
2021/04/06 13:52:28;;;;;;;;;;;5.10;73.90;;;;;;5092457;28;19916;-71
2021/04/06 13:54:54;;;;;;;;;;;5.30;72.10;;;;;;5088688;28;19947;-71
2021/04/06 13:57:21;;;;;;;;;;;5.50;70.40;;;;;;5093633;28;20461;-72
2021/04/06 13:59:52;;;;;;;;;;;5.80;72.80;;;;;;5089405;28;19947;-72
2021/04/06 14:02:17;;;;;;;;;;;6.20;70.90;;;;;;5091525;28;19912;-71
2021/04/06 14:04:43;;;;;;;;;;;6.10;67.90;;;;;;5090684;28;20392;-72
2021/04/06 14:07:08;;;;;;;;;;;6.00;70.50;;;;;;5091203;28;19956;-73
2021/04/06 14:09:34;;;;;;;;;;;6.00;68.30;;;;;;5090656;28;19916;-72
2021/04/06 14:12:00;;;;;;;;;;;5.90;68.80;;;;;;5092187;28;19930;-73
2021/04/06 14:14:25;;;;;;;;;;;5.80;63.70;;;;;;5090808;28;20031;-72
2021/04/06 14:16:53;;;;;;;;;;;6.00;68.60;;;;;;5086322;28;19924;-71
2021/04/06 14:19:19;;;;;;;;;;;6.20;67.50;;;;;;5091338;28;19924;-72
2021/04/06 14:21:46;;;;;;;;;;;6.30;65.10;;;;;;5088791;28;20015;-72
2021/04/06 14:24:12;;;;;;;;;;;6.60;70.40;;;;;;5093444;28;19916;-72
2021/04/06 14:26:40;;;;;;;;;;;6.90;64.20;;;;;;5090510;28;20050;-71
2021/04/06 14:29:06;;;;;;;;;;;7.00;63.60;;;;;;5086746;28;20389;-72
2021/04/06 14:31:35;;;;;;;;;;;7.20;61.20;;;;;;5090690;28;20026;-73
2021/04/06 14:34:00;;;;;;;;;;;7.00;62.20;;;;;;5086356;28;19912;-72
2021/04/06 14:36:26;;;;;;;;;;;6.70;60.70;;;;;;5086089;28;19916;-73
2021/04/06 14:38:51;;;;;;;;;;;6.40;61.00;;;;;;5092011;28;19923;-73
2021/04/06 14:41:18;;;;;;;;;;;6.30;60.20;;;;;;5089741;28;20109;-73
2021/04/06 14:43:45;;;;;;;;;;;6.30;62.50;;;;;;5091183;28;19995;-70